Time;durP1;ratioP1;P1;durP2;ratioP2;P2;SDS_P1;SDS_P2;PMS_P1;PMS_P2;Temp;Humidity;BMP_temperature;BMP_pressure;BME280_temperature;BME280_humidity;BME280_pressure;Samples;Min_cycle;Max_cycle;Signal;HPM_P1;HPM_P2
2022/11/25 00:01:31;;;;;;;17.75;3.90;;;;;;;9.56;100.00;100878.63;4991507;28;20026;-60
2022/11/25 00:03:57;;;;;;;17.25;3.83;;;;;;;9.60;100.00;100882.88;4990605;28;20026;-62
2022/11/25 00:06:25;;;;;;;28.65;4.35;;;;;;;9.54;100.00;100883.03;4991406;28;20462;-61
2022/11/25 00:09:09;;;;;;;27.13;4.20;;;;;;;9.56;100.00;100881.25;4991436;28;20068;-62
2022/11/25 00:11:36;;;;;;;17.80;3.50;;;;;;;9.57;100.00;100882.13;4991488;28;20507;-62
2022/11/25 00:14:02;;;;;;;23.77;4.10;;;;;;;9.54;100.00;100883.03;4991480;28;20465;-57
2022/11/25 00:16:27;;;;;;;14.80;3.83;;;;;;;9.59;100.00;100877.66;4991681;28;20081;-61
2022/11/25 00:18:54;;;;;;;24.05;4.07;;;;;;;9.57;100.00;100876.84;4990762;28;20365;-64
2022/11/25 00:21:22;;;;;;;23.15;5.00;;;;;;;9.56;100.00;100872.47;4991190;28;20030;-60
2022/11/25 00:23:55;;;;;;;20.55;3.50;;;;;;;9.57;100.00;100877.69;4989349;28;20034;-61
2022/11/25 00:26:22;;;;;;;22.58;4.35;;;;;;;9.56;100.00;100870.72;4991054;28;20034;-60
2022/11/25 00:28:47;;;;;;;18.98;3.88;;;;;;;9.63;100.00;100873.19;4990603;28;20033;-60
2022/11/25 00:31:18;;;;;;;16.15;3.83;;;;;;;9.65;100.00;100880.09;4991573;28;20034;-62
2022/11/25 00:33:44;;;;;;;23.02;4.60;;;;;;;9.66;100.00;100876.56;4990871;28;20030;-61
2022/11/25 00:36:21;;;;;;;18.33;4.10;;;;;;;9.78;100.00;100879.75;4990565;28;20026;-62
2022/11/25 00:38:51;;;;;;;17.60;4.55;;;;;;;9.79;100.00;100877.09;4991578;28;20042;-62
2022/11/25 00:46:44;;;;;;;17.83;3.65;;;;;;;9.76;100.00;100878.94;4991144;28;20049;-60
2022/11/25 00:49:09;;;;;;;15.90;3.72;;;;;;;9.81;100.00;100888.41;4990295;28;20467;-63
2022/11/25 00:51:35;;;;;;;16.27;3.65;;;;;;;9.77;100.00;100884.16;4989823;28;20050;-63
2022/11/25 00:54:00;;;;;;;17.27;3.90;;;;;;;9.83;100.00;100883.97;4991093;28;20025;-62
2022/11/25 00:56:25;;;;;;;19.70;4.32;;;;;;;9.71;100.00;100884.31;4990735;28;20023;-61
2022/11/25 00:58:52;;;;;;;22.48;4.38;;;;;;;9.76;100.00;100892.09;4989062;28;20052;-65
2022/11/25 01:01:17;;;;;;;24.48;4.07;;;;;;;9.75;100.00;100896.47;4991279;28;20026;-60
2022/11/25 01:03:42;;;;;;;19.60;4.18;;;;;;;9.75;100.00;100896.47;4990692;28;20088;-62
2022/11/25 01:06:09;;;;;;;22.42;4.93;;;;;;;9.76;100.00;100902.59;4990516;28;20046;-62
2022/11/25 01:08:36;;;;;;;18.83;4.75;;;;;;;9.75;100.00;100900.91;4990242;28;20046;-63
2022/11/25 01:11:09;;;;;;;21.85;4.28;;;;;;;9.76;100.00;100903.47;4990826;28;20049;-64
2022/11/25 01:13:34;;;;;;;16.60;4.50;;;;;;;9.78;100.00;100911.34;4989026;28;20023;-62
2022/11/25 01:16:03;;;;;;;19.50;4.72;;;;;;;9.74;100.00;100907.91;4990720;28;20084;-60
2022/11/25 01:18:30;;;;;;;13.82;4.07;;;;;;;9.77;100.00;100902.56;4989609;28;20030;-61
2022/11/25 01:20:55;;;;;;;15.57;3.58;;;;;;;9.79;100.00;100908.66;5008446;28;20449;-61
2022/11/25 01:23:20;;;;;;;19.08;4.35;;;;;;;9.78;100.00;100903.44;5008541;28;20044;-61
2022/11/25 01:25:46;;;;;;;18.83;4.47;;;;;;;9.78;100.00;100901.66;5010500;28;20027;-61
2022/11/25 01:28:12;;;;;;;19.52;4.20;;;;;;;9.85;100.00;100912.88;5008982;28;20026;-62
2022/11/25 01:30:38;;;;;;;16.08;4.35;;;;;;;9.85;100.00;100908.44;5010552;28;20152;-62
2022/11/25 01:33:03;;;;;;;17.00;4.65;;;;;;;9.88;100.00;100911.91;5009582;28;20473;-63
2022/11/25 01:35:29;;;;;;;12.93;4.43;;;;;;;9.86;100.00;100898.78;5010714;28;20022;-61
2022/11/25 01:37:54;;;;;;;20.33;4.78;;;;;;;9.85;100.00;100900.56;5010836;28;20080;-63
2022/11/25 01:40:19;;;;;;;19.17;4.07;;;;;;;9.89;100.00;100906.59;5009088;28;20092;-62
2022/11/25 01:42:46;;;;;;;22.45;4.55;;;;;;;9.85;100.00;100908.44;5011039;28;20022;-62
2022/11/25 01:45:33;;;;;;;20.00;4.80;;;;;;;9.86;100.00;100902.31;5010212;28;20025;-61
2022/11/25 01:48:04;;;;;;;15.95;4.15;;;;;;;9.98;100.00;100900.19;4984343;28;20489;-62
2022/11/25 01:50:31;;;;;;;24.23;4.28;;;;;;;9.94;100.00;100888.88;4968952;28;20034;-60
2022/11/25 01:52:57;;;;;;;17.13;4.03;;;;;;;9.98;100.00;100881.78;4981344;28;20033;-60
2022/11/25 01:55:27;;;;;;;18.83;3.92;;;;;;;10.06;100.00;100889.44;4983594;28;20037;-62
2022/11/25 01:57:57;;;;;;;18.30;4.40;;;;;;;10.04;100.00;100907.91;4987383;28;20386;-58
2022/11/25 02:00:22;;;;;;;20.70;4.90;;;;;;;10.07;100.00;100912.22;4985601;28;20026;-62
2022/11/25 02:02:50;;;;;;;20.27;3.67;;;;;;;10.06;100.00;100900.81;4980816;28;20038;-59
2022/11/25 02:05:18;;;;;;;19.20;4.13;;;;;;;9.98;100.00;100881.78;4988871;28;20030;-62
2022/11/25 02:07:45;;;;;;;21.73;4.15;;;;;;;10.02;100.00;100886.03;4987898;28;20037;-61
2022/11/25 02:12:40;;;;;;;17.38;3.15;;;;;;;10.01;100.00;100902.75;5007590;28;20108;-59
2022/11/25 02:15:07;;;;;;;18.83;3.58;;;;;;;10.06;100.00;100895.53;4991357;28;20105;-60
2022/11/25 02:17:32;;;;;;;23.27;3.85;;;;;;;10.09;100.00;100903.34;4974011;28;20034;-62
2022/11/25 02:20:00;;;;;;;22.65;2.95;;;;;;;10.06;100.00;100900.81;4994528;28;20041;-61
2022/11/25 02:22:35;;;;;;;22.25;3.40;;;;;;;10.08;100.00;100903.41;4991214;28;20030;-60
2022/11/25 02:25:12;;;;;;;20.48;4.25;;;;;;;10.03;100.00;100894.78;4989610;28;20444;-62
2022/11/25 02:27:37;;;;;;;12.05;3.28;;;;;;;9.96;100.00;100896.72;4990756;28;20116;-62
2022/11/25 02:30:02;;;;;;;15.30;2.90;;;;;;;9.96;100.00;100900.25;5008277;28;20096;-60
2022/11/25 02:32:28;;;;;;;10.80;2.97;;;;;;;9.94;100.00;100901.19;5007725;28;20061;-62
2022/11/25 02:34:53;;;;;;;13.63;2.72;;;;;;;9.93;100.00;100904.75;5007880;28;20076;-60
2022/11/25 02:37:20;;;;;;;15.48;2.60;;;;;;;9.97;100.00;100903.75;5007954;28;20072;-61
2022/11/25 02:39:47;;;;;;;16.58;2.80;;;;;;;9.90;100.00;100910.09;4991234;28;20033;-62
2022/11/25 02:42:12;;;;;;;15.35;2.63;;;;;;;9.98;100.00;100908.97;5008288;28;20045;-61
2022/11/25 02:44:37;;;;;;;16.20;2.78;;;;;;;10.00;100.00;100916.81;5008119;28;20357;-59
2022/11/25 02:47:03;;;;;;;13.20;2.28;;;;;;;10.04;100.00;100915.81;5010219;28;20034;-62
2022/11/25 02:49:28;;;;;;;10.35;2.40;;;;;;;9.97;100.00;100914.28;5013029;28;20025;-64
2022/11/25 02:51:53;;;;;;;10.65;2.75;;;;;;;9.97;100.00;100930.06;5007368;28;20032;-61
2022/11/25 02:54:19;;;;;;;12.13;2.28;;;;;;;9.97;100.00;100922.16;5012215;28;20496;-60
2022/11/25 02:56:44;;;;;;;9.85;2.58;;;;;;;9.96;100.00;100920.44;5011425;28;20389;-61
2022/11/25 02:59:10;;;;;;;12.82;2.40;;;;;;;9.91;100.00;100917.97;5016488;28;20495;-61
2022/11/25 03:01:37;;;;;;;11.10;2.20;;;;;;;9.97;100.00;100927.44;5007219;28;20038;-61
2022/11/25 03:04:02;;;;;;;11.18;2.17;;;;;;;10.00;100.00;100919.44;5005947;28;20083;-62
2022/11/25 03:06:28;;;;;;;11.02;2.20;;;;;;;9.98;100.00;100924.75;5007742;28;20030;-67
2022/11/25 03:08:53;;;;;;;13.77;2.42;;;;;;;9.97;100.00;100924.81;5015862;28;20026;-61
2022/11/25 03:11:19;;;;;;;11.23;2.10;;;;;;;9.95;100.00;100927.47;5007755;28;20100;-61
2022/11/25 03:13:44;;;;;;;8.05;1.90;;;;;;;9.94;100.00;100923.09;5008142;28;20018;-63
2022/11/25 03:16:10;;;;;;;10.52;2.38;;;;;;;9.89;100.00;100929.41;5007432;28;20133;-62
2022/11/25 03:18:35;;;;;;;7.93;1.75;;;;;;;9.86;100.00;100928.63;5007309;28;20034;-63
2022/11/25 03:21:01;;;;;;;8.95;1.95;;;;;;;9.83;100.00;100935.72;5007526;28;20430;-63
2022/11/25 03:23:26;;;;;;;8.82;2.10;;;;;;;9.85;100.00;100942.66;5007747;28;20073;-61
2022/11/25 03:25:52;;;;;;;10.18;2.38;;;;;;;9.80;100.00;100931.44;5007695;28;20026;-62
2022/11/25 03:28:17;;;;;;;9.55;1.88;;;;;;;9.77;100.00;100946.44;5015468;28;20071;-61
2022/11/25 03:30:42;;;;;;;6.22;1.80;;;;;;;9.77;100.00;100939.41;5007920;28;20026;-62
2022/11/25 03:33:08;;;;;;;6.30;1.90;;;;;;;9.75;100.00;100943.84;5005808;28;20033;-62
2022/11/25 03:35:33;;;;;;;15.35;3.05;;;;;;;9.68;100.00;100953.69;5007665;28;20029;-62
2022/11/25 03:37:58;;;;;;;13.85;2.33;;;;;;;9.69;100.00;100957.19;5007436;28;20049;-63
2022/11/25 03:40:24;;;;;;;8.02;2.08;;;;;;;9.66;100.00;100965.19;5008025;28;20588;-62
2022/11/25 03:42:49;;;;;;;7.63;1.58;;;;;;;9.65;100.00;100971.31;5007504;28;20037;-63
2022/11/25 03:45:15;;;;;;;8.05;2.17;;;;;;;9.61;100.00;100966.13;5008221;28;20064;-62
2022/11/25 03:47:42;;;;;;;6.30;1.83;;;;;;;9.65;100.00;100974.81;5007151;28;20069;-62
2022/11/25 03:50:08;;;;;;;11.57;2.10;;;;;;;9.60;100.00;100977.56;4995186;28;20050;-64
2022/11/25 03:52:34;;;;;;;6.63;2.10;;;;;;;9.51;100.00;100983.09;5006861;28;20428;-62
2022/11/25 03:54:59;;;;;;;7.28;1.85;;;;;;;9.50;100.00;100981.38;5006597;28;20029;-64
2022/11/25 03:57:24;;;;;;;7.35;2.13;;;;;;;9.43;100.00;100982.44;5007558;28;20033;-64
2022/11/25 03:59:50;;;;;;;8.05;2.38;;;;;;;9.32;100.00;100983.59;5007250;28;20037;-63
2022/11/25 04:02:15;;;;;;;9.23;2.45;;;;;;;9.20;100.00;100986.53;5007097;28;20033;-63
2022/11/25 04:04:41;;;;;;;6.80;1.98;;;;;;;9.17;100.00;100978.72;5007448;28;20034;-64
2022/11/25 04:07:06;;;;;;;7.43;2.10;;;;;;;9.13;100.00;100974.44;5007134;28;20458;-63
2022/11/25 04:09:32;;;;;;;6.00;2.10;;;;;;;9.12;100.00;100980.63;4990901;28;20033;-59
2022/11/25 04:14:41;;;;;;;8.02;1.90;;;;;;;9.10;100.00;100985.91;5009552;28;20037;-64
2022/11/25 04:17:07;;;;;;;8.13;2.42;;;;;;;9.08;100.00;100982.44;5009967;28;20034;-60
2022/11/25 04:19:32;;;;;;;5.68;1.80;;;;;;;9.08;100.00;100979.81;4992925;28;20109;-62
2022/11/25 04:21:59;;;;;;;11.73;1.85;;;;;;;9.07;100.00;100992.13;5010574;28;20418;-64
2022/11/25 04:24:25;;;;;;;5.22;1.33;;;;;;;9.03;100.00;101000.13;5010256;28;20026;-63
2022/11/25 04:26:51;;;;;;;6.50;1.73;;;;;;;9.08;100.00;101000.84;5010426;28;20365;-58
2022/11/25 04:29:16;;;;;;;8.68;1.40;;;;;;;9.08;100.00;100999.09;5013222;28;20084;-64
2022/11/25 04:31:41;;;;;;;7.88;1.88;;;;;;;9.10;100.00;100992.00;5014963;28;20021;-63
2022/11/25 04:34:07;;;;;;;6.70;1.73;;;;;;;9.02;100.00;100996.63;5010919;28;20045;-65
2022/11/25 04:36:32;;;;;;;5.45;1.30;;;;;;;9.01;100.00;101009.78;5013576;28;20076;-60
2022/11/25 04:38:57;;;;;;;5.25;1.38;;;;;;;9.07;100.00;101012.28;5009568;28;20026;-63
2022/11/25 04:41:23;;;;;;;6.53;1.30;;;;;;;9.03;100.00;101014.09;5010052;28;20029;-64
2022/11/25 04:43:48;;;;;;;5.13;1.25;;;;;;;9.02;100.00;101022.03;5010254;28;20034;-63
2022/11/25 04:46:16;;;;;;;2.10;1.08;;;;;;;8.96;100.00;101023.03;5010362;28;20084;-63
2022/11/25 04:48:42;;;;;;;3.67;1.30;;;;;;;8.92;100.00;101038.03;5009811;28;20018;-64
2022/11/25 04:51:07;;;;;;;3.83;1.30;;;;;;;8.93;100.00;101034.50;5009647;28;20296;-63
2022/11/25 04:53:32;;;;;;;5.60;1.33;;;;;;;8.87;100.00;101050.41;5010229;28;20076;-64
2022/11/25 04:55:58;;;;;;;6.82;1.52;;;;;;;8.87;100.00;101045.16;5018077;28;20029;-64
2022/11/25 05:01:07;;;;;;;4.72;2.20;;;;;;;8.92;100.00;101040.66;5008899;28;20095;-64
2022/11/25 05:03:32;;;;;;;5.15;1.60;;;;;;;8.97;100.00;101041.41;5008916;28;20077;-61
2022/11/25 05:05:58;;;;;;;3.17;1.65;;;;;;;9.00;100.00;101045.72;5009721;28;20104;-65
2022/11/25 05:08:23;;;;;;;5.65;1.67;;;;;;;8.90;100.00;101049.47;5010122;28;20030;-63
2022/11/25 05:10:48;;;;;;;4.97;1.95;;;;;;;8.90;100.00;101046.84;4991906;28;20034;-65
2022/11/25 05:13:13;;;;;;;7.13;2.25;;;;;;;8.93;100.00;101052.03;5009987;28;20030;-62
2022/11/25 05:15:39;;;;;;;4.45;1.70;;;;;;;8.84;100.00;101053.97;5008888;28;20029;-63
2022/11/25 05:18:04;;;;;;;6.75;2.13;;;;;;;8.87;100.00;101049.53;5005650;28;20037;-64
2022/11/25 05:20:29;;;;;;;5.65;1.70;;;;;;;8.87;100.00;101054.78;4988901;28;20054;-64
2022/11/25 05:22:55;;;;;;;6.30;1.55;;;;;;;8.78;100.00;101064.63;4989098;28;20038;-65
2022/11/25 05:25:20;;;;;;;4.93;2.13;;;;;;;8.78;100.00;101071.63;4990525;28;20023;-63
2022/11/25 05:27:45;;;;;;;10.70;2.08;;;;;;;8.78;100.00;101077.75;5000716;28;20026;-64
2022/11/25 05:30:12;;;;;;;7.18;1.85;;;;;;;8.81;100.00;101072.44;5019543;28;20025;-62
2022/11/25 05:32:39;;;;;;;8.40;2.10;;;;;;;8.79;100.00;101076.84;5008632;28;20117;-64
2022/11/25 05:35:04;;;;;;;11.30;2.50;;;;;;;8.82;100.00;101084.66;5019393;28;20057;-64
2022/11/25 05:37:30;;;;;;;9.10;2.28;;;;;;;8.82;100.00;101083.81;5013343;28;20420;-65
2022/11/25 05:39:55;;;;;;;8.10;2.05;;;;;;;8.85;100.00;101086.34;5011590;28;20034;-63
2022/11/25 05:42:20;;;;;;;9.63;2.28;;;;;;;8.79;100.00;101087.38;5023862;28;20021;-58
2022/11/25 05:44:46;;;;;;;9.88;2.05;;;;;;;8.73;100.00;101087.50;5017374;28;20033;-62
2022/11/25 05:47:11;;;;;;;3.20;1.95;;;;;;;8.72;100.00;101098.91;5023344;28;20028;-62
2022/11/25 05:49:36;;;;;;;6.28;2.20;;;;;;;8.71;100.00;101090.19;5027707;28;20634;-63
2022/11/25 05:52:02;;;;;;;8.82;2.17;;;;;;;8.64;100.00;101093.81;5020396;28;20045;-63
2022/11/25 05:54:27;;;;;;;4.45;1.88;;;;;;;8.63;100.00;101091.22;5019979;28;20045;-61
2022/11/25 05:56:52;;;;;;;12.32;2.75;;;;;;;8.58;100.00;101101.88;5023733;28;20030;-63
2022/11/25 05:59:18;;;;;;;7.35;2.38;;;;;;;8.52;100.00;101097.53;5010084;28;20030;-61
2022/11/25 06:01:43;;;;;;;6.65;2.60;;;;;;;8.52;100.00;101100.16;4996065;28;20033;-63
2022/11/25 06:04:08;;;;;;;8.10;2.80;;;;;;;8.46;100.00;101110.84;5026983;28;20025;-59
2022/11/25 06:06:34;;;;;;;8.98;2.63;;;;;;;8.41;100.00;101107.41;5010917;28;20030;-62
2022/11/25 06:08:59;;;;;;;13.10;3.17;;;;;;;8.39;100.00;101111.81;4989864;28;20108;-63
2022/11/25 06:11:25;;;;;;;9.88;2.75;;;;;;;8.38;100.00;101120.59;5007490;28;20050;-63
2022/11/25 06:13:50;;;;;;;14.30;2.20;;;;;;;8.38;100.00;101126.75;5007676;28;20022;-61
2022/11/25 06:16:18;;;;;;;9.95;2.53;;;;;;;8.27;100.00;101124.31;5009059;28;20679;-63
2022/11/25 06:18:44;;;;;;;7.10;2.55;;;;;;;8.27;100.00;101123.44;5008983;28;20040;-64
2022/11/25 06:21:10;;;;;;;9.63;2.53;;;;;;;8.27;100.00;101119.06;5007815;28;20030;-63
2022/11/25 06:23:36;;;;;;;6.80;2.42;;;;;;;8.26;100.00;101119.97;5009271;28;20030;-63
2022/11/25 06:26:17;;;;;;;8.20;3.15;;;;;;;8.29;100.00;101121.66;5007794;28;20652;-64
2022/11/25 06:28:42;;;;;;;10.10;2.72;;;;;;;8.22;100.00;101116.53;5009094;28;20025;-63
2022/11/25 06:31:20;;;;;;;9.80;2.67;;;;;;;8.26;100.00;101122.59;4991026;28;20029;-60
2022/11/25 06:33:46;;;;;;;7.15;2.50;;;;;;;8.30;100.00;101128.63;4990484;28;20053;-62
2022/11/25 06:36:15;;;;;;;7.43;2.92;;;;;;;8.28;100.00;101127.81;5008455;28;20105;-64
2022/11/25 06:38:44;;;;;;;10.73;3.03;;;;;;;8.13;100.00;101137.69;5008514;28;20440;-65
2022/11/25 06:41:10;;;;;;;13.13;3.47;;;;;;;8.16;100.00;101142.88;5007229;28;20053;-58
2022/11/25 06:43:35;;;;;;;11.65;3.38;;;;;;;8.15;100.00;101148.16;5009954;28;20530;-65
2022/11/25 06:46:02;;;;;;;10.10;2.65;;;;;;;8.12;100.00;101143.84;5007843;28;20025;-63
2022/11/25 06:48:28;;;;;;;9.15;3.08;;;;;;;8.12;100.00;101151.72;4989928;28;20025;-62
2022/11/25 06:51:04;;;;;;;15.10;3.30;;;;;;;8.12;100.00;101158.75;4994950;28;20587;-64
2022/11/25 06:53:30;;;;;;;14.75;3.15;;;;;;;8.12;100.00;101161.38;4988354;28;20022;-63
2022/11/25 06:56:07;;;;;;;16.75;3.63;;;;;;;8.05;100.00;101171.97;4988711;28;20050;-63
2022/11/25 06:58:33;;;;;;;11.30;3.17;;;;;;;8.09;100.00;101172.78;4988501;28;20077;-63
2022/11/25 07:01:18;;;;;;;11.82;3.33;;;;;;;8.08;100.00;101171.94;4996249;28;20038;-59
2022/11/25 07:03:45;;;;;;;10.55;3.72;;;;;;;8.03;100.00;101178.13;5012669;28;20029;-63
2022/11/25 07:06:12;;;;;;;15.95;3.58;;;;;;;7.96;100.00;101183.50;5002246;28;20050;-63
2022/11/25 07:08:38;;;;;;;9.07;2.95;;;;;;;7.99;100.00;101190.44;4997882;28;20033;-61
2022/11/25 07:11:06;;;;;;;18.30;4.18;;;;;;;7.95;100.00;101192.25;4990564;28;20268;-64
2022/11/25 07:13:32;;;;;;;15.32;3.15;;;;;;;7.96;100.00;101201.00;4996430;28;20061;-62
2022/11/25 07:16:04;;;;;;;8.10;3.10;;;;;;;7.98;100.00;101193.97;4986189;28;20018;-63
2022/11/25 07:18:34;;;;;;;15.70;2.95;;;;;;;7.97;100.00;101198.34;4995595;28;20484;-63
2022/11/25 07:21:03;;;;;;;22.40;3.55;;;;;;;8.03;100.00;101189.50;5000865;28;20033;-62
2022/11/25 07:23:28;;;;;;;9.30;2.88;;;;;;;8.05;100.00;101211.34;5000550;28;20038;-64
2022/11/25 07:25:53;;;;;;;14.32;3.75;;;;;;;7.98;100.00;101207.09;4996591;28;20080;-63
2022/11/25 07:28:19;;;;;;;9.43;3.13;;;;;;;8.03;100.00;101215.75;4999110;28;20018;-63
2022/11/25 07:30:44;;;;;;;4.63;2.60;;;;;;;7.99;100.00;101219.31;4998010;28;20586;-63
2022/11/25 07:33:09;;;;;;;13.38;3.38;;;;;;;8.03;100.00;101220.13;4997231;28;20393;-59
2022/11/25 07:35:34;;;;;;;10.38;2.70;;;;;;;8.04;100.00;101225.34;5004420;28;20468;-62
2022/11/25 07:38:00;;;;;;;18.10;2.95;;;;;;;8.03;100.00;101236.75;5007410;28;20033;-64
2022/11/25 07:40:25;;;;;;;8.25;2.60;;;;;;;8.04;100.00;101240.25;5007402;28;20029;-59
2022/11/25 07:42:50;;;;;;;14.70;3.00;;;;;;;8.08;100.00;101239.28;5007351;28;20029;-64
2022/11/25 07:45:16;;;;;;;12.27;3.67;;;;;;;8.10;100.00;101242.78;5010017;28;20033;-64
2022/11/25 07:47:41;;;;;;;16.23;3.17;;;;;;;8.08;100.00;101234.03;5010934;28;20057;-60
2022/11/25 07:50:07;;;;;;;10.50;3.25;;;;;;;8.11;100.00;101254.13;5017609;28;20033;-64
2022/11/25 07:52:32;;;;;;;10.50;2.78;;;;;;;8.16;100.00;101252.28;5030407;28;20038;-62
2022/11/25 07:54:57;;;;;;;8.75;2.95;;;;;;;8.13;100.00;101270.72;5023895;28;20559;-59
2022/11/25 07:57:23;;;;;;;10.00;2.85;;;;;;;8.20;100.00;101265.34;5017794;28;20029;-62
2022/11/25 07:59:48;;;;;;;6.80;2.30;;;;;;;8.26;100.00;101274.88;5010272;28;20029;-64
2022/11/25 08:02:13;;;;;;;11.20;2.58;;;;;;;8.36;100.00;101278.19;5009948;28;20037;-63
2022/11/25 08:04:39;;;;;;;9.50;2.13;;;;;;;8.38;100.00;101286.03;5002302;28;20027;-63
2022/11/25 08:07:04;;;;;;;7.97;1.95;;;;;;;8.47;100.00;101285.88;5008270;28;20030;-61
2022/11/25 08:09:29;;;;;;;6.18;2.00;;;;;;;8.61;100.00;101296.16;5011491;28;20049;-65
2022/11/25 08:11:55;;;;;;;8.30;2.08;;;;;;;8.68;100.00;101299.56;5011043;28;20046;-64
2022/11/25 08:14:20;;;;;;;7.25;1.98;;;;;;;8.70;100.00;101300.41;5011599;28;20029;-62
2022/11/25 08:16:45;;;;;;;10.40;2.25;;;;;;;8.78;100.00;101306.38;4999687;28;20475;-61
2022/11/25 08:19:14;;;;;;;7.15;1.80;;;;;;;8.80;100.00;101306.34;5030618;28;20622;-63
2022/11/25 08:21:40;;;;;;;8.82;2.10;;;;;;;8.89;100.00;101310.53;5030182;28;20044;-63
2022/11/25 08:24:06;;;;;;;9.20;2.22;;;;;;;8.91;100.00;101316.66;5030480;28;20021;-63
2022/11/25 08:26:35;;;;;;;9.40;2.03;;;;;;;8.96;100.00;101304.28;5030744;28;20029;-63
2022/11/25 08:29:01;;;;;;;3.58;1.48;;;;;;;9.05;100.00;101300.59;5026535;28;20026;-57
2022/11/25 08:31:30;;;;;;;8.43;2.33;;;;;;;9.09;100.00;101308.38;5028999;28;20021;-64
2022/11/25 08:33:56;;;;;;;9.23;1.80;;;;;;;9.18;100.00;101306.50;5029476;28;20029;-59
2022/11/25 08:36:22;;;;;;;7.18;1.92;;;;;;;9.16;100.00;101314.41;5029916;28;20025;-64
2022/11/25 08:38:49;;;;;;;8.18;1.77;;;;;;;9.23;100.00;101309.88;5029915;28;20388;-59
2022/11/25 08:41:24;;;;;;;3.00;1.38;;;;;;;9.27;100.00;101306.28;5030116;28;20067;-65
2022/11/25 08:43:49;;;;;;;7.78;1.67;;;;;;;9.28;100.00;101310.66;5013349;28;20369;-63
2022/11/25 08:46:18;;;;;;;8.75;1.85;;;;;;;9.31;100.00;101314.97;5029724;28;20028;-64
2022/11/25 08:48:43;;;;;;;7.68;1.77;;;;;;;9.42;100.00;101320.03;5030114;28;20018;-63
2022/11/25 08:51:14;;;;;;;9.82;2.45;;;;;;;9.42;100.00;101327.91;5020014;28;20077;-63
2022/11/25 08:53:40;;;;;;;6.78;1.95;;;;;;;9.49;100.00;101332.13;5009960;28;20042;-63
2022/11/25 08:56:06;;;;;;;7.18;1.88;;;;;;;9.54;100.00;101332.88;5008418;28;20033;-62
2022/11/25 08:58:32;;;;;;;7.80;1.70;;;;;;;9.65;100.00;101344.94;4991630;28;20022;-59
2022/11/25 09:00:57;;;;;;;7.97;2.10;;;;;;;9.62;100.00;101351.16;5014807;28;20040;-61
2022/11/25 09:03:24;;;;;;;10.48;1.95;;;;;;;9.70;100.00;101351.84;4998362;28;20026;-63
2022/11/25 09:05:49;;;;;;;10.48;2.50;;;;;;;9.78;100.00;101353.47;4999191;28;20093;-64
2022/11/25 09:08:15;;;;;;;9.48;1.85;;;;;;;9.88;100.00;101352.34;4989482;28;20121;-63
2022/11/25 09:10:40;;;;;;;8.50;2.08;;;;;;;9.96;100.00;101360.03;5000321;28;20030;-65
2022/11/25 09:13:06;;;;;;;5.75;2.25;;;;;;;9.96;100.00;101362.69;4997785;28;20052;-62
2022/11/25 09:15:32;;;;;;;11.25;2.08;;;;;;;10.10;100.00;101371.16;4999664;28;20018;-63
2022/11/25 09:18:02;;;;;;;8.80;2.20;;;;;;;10.12;100.00;101373.75;4997732;28;20134;-62
2022/11/25 09:20:28;;;;;;;9.15;1.55;;;;;;;10.26;100.00;101376.03;5000885;28;20065;-65
2022/11/25 09:22:53;;;;;;;7.93;2.05;;;;;;;10.39;100.00;101376.63;5000221;28;20053;-60
2022/11/25 09:25:22;;;;;;;12.02;2.22;;;;;;;10.48;100.00;101376.41;4999685;28;20451;-60
2022/11/25 09:27:47;;;;;;;11.85;2.38;;;;;;;10.59;100.00;101384.03;4997494;28;20022;-61
2022/11/25 09:30:13;;;;;;;7.68;2.22;;;;;;;10.67;100.00;101390.88;4997715;28;20075;-59
2022/11/25 09:32:38;;;;;;;11.50;2.35;;;;;;;10.76;100.00;101395.94;4997759;28;20133;-63
2022/11/25 09:35:04;;;;;;;9.27;2.08;;;;;;;10.83;100.00;101401.91;4998474;28;20512;-64
2022/11/25 09:37:30;;;;;;;9.93;2.47;;;;;;;11.04;100.00;101411.03;4999071;28;20022;-61
2022/11/25 09:39:56;;;;;;;8.30;2.00;;;;;;;11.13;100.00;101409.91;4997581;28;20036;-63
2022/11/25 09:48:56;;;;;;;7.07;1.92;;;;;;;11.54;100.00;101412.31;5003527;28;20095;-64
2022/11/25 09:51:33;;;;;;;12.15;2.38;;;;;;;11.68;100.00;101405.75;4989641;28;20028;-63
2022/11/25 09:54:08;;;;;;;6.63;2.00;;;;;;;11.82;100.00;101418.53;4985308;28;20081;-63
2022/11/25 09:56:36;;;;;;;10.02;2.00;;;;;;;11.78;100.00;101422.19;4999935;28;20034;-63
2022/11/25 09:59:05;;;;;;;10.48;2.20;;;;;;;11.99;100.00;101420.69;4970533;28;20429;-60
2022/11/25 10:01:34;;;;;;;9.82;2.60;;;;;;;11.98;100.00;101430.38;4998776;28;20038;-61
2022/11/25 10:04:03;;;;;;;12.97;2.90;;;;;;;11.88;100.00;101440.34;4989433;28;20078;-61
2022/11/25 10:06:32;;;;;;;18.40;2.35;;;;;;;11.98;100.00;101434.81;5007033;28;20040;-64
2022/11/25 10:09:05;;;;;;;12.90;3.42;;;;;;;11.98;100.00;101438.28;4985344;28;20108;-63
2022/11/25 10:12:03;;;;;;;11.95;2.42;;;;;;;11.89;100.00;101446.47;4988363;28;20112;-61
2022/11/25 10:14:33;;;;;;;17.23;2.30;;;;;;;11.82;100.00;101448.47;4959354;28;20056;-62
2022/11/25 10:17:08;;;;;;;5.72;2.20;;;;;;;11.80;100.00;101447.63;5004516;28;20029;-64
2022/11/25 10:19:48;;;;;;;12.85;2.78;;;;;;;11.78;100.00;101452.09;5006746;28;20100;-64
2022/11/25 10:22:24;;;;;;;8.30;2.10;;;;;;;11.81;100.00;101449.38;4991008;28;20037;-59
2022/11/25 10:24:52;;;;;;;14.23;2.97;;;;;;;11.82;100.00;101452.84;5001136;28;20515;-63
2022/11/25 10:27:23;;;;;;;14.30;2.70;;;;;;;11.98;100.00;101461.22;4997102;28;20037;-56
2022/11/25 10:29:58;;;;;;;11.45;2.20;;;;;;;11.97;100.00;101460.34;5000003;28;20022;-59
2022/11/25 10:32:27;;;;;;;14.52;2.97;;;;;;;11.97;100.00;101460.34;4986331;28;20030;-64
2022/11/25 10:34:57;;;;;;;11.98;2.20;;;;;;;12.08;100.00;101462.69;5001047;28;20451;-62
2022/11/25 10:37:29;;;;;;;11.18;2.67;;;;;;;12.03;100.00;101463.69;4998935;28;20014;-64
2022/11/25 10:39:54;;;;;;;12.43;2.50;;;;;;;12.13;100.00;101465.19;4998365;28;20427;-62
2022/11/25 10:42:22;;;;;;;13.02;2.60;;;;;;;12.22;100.00;101477.28;5003062;28;20038;-62
2022/11/25 10:44:48;;;;;;;12.35;3.25;;;;;;;12.38;100.00;101494.34;5026328;28;20047;-61
2022/11/25 10:47:25;;;;;;;14.02;2.53;;;;;;;12.29;100.00;101486.72;5025781;28;20452;-63
2022/11/25 10:50:07;;;;;;;12.70;2.00;;;;;;;12.32;100.00;101497.22;5018676;28;20033;-59
2022/11/25 10:52:40;;;;;;;13.02;2.08;;;;;;;12.29;100.00;101496.44;4998560;28;20022;-62
2022/11/25 10:55:08;;;;;;;12.57;2.80;;;;;;;12.34;100.00;101507.72;4998782;28;20545;-59
2022/11/25 10:57:34;;;;;;;19.83;2.73;;;;;;;12.34;100.00;101519.16;4990286;28;20026;-62
2022/11/25 11:00:00;;;;;;;19.88;2.92;;;;;;;12.37;100.00;101516.41;4987112;28;20034;-62
2022/11/25 11:02:34;;;;;;;9.98;2.00;;;;;;;12.49;100.00;101515.16;4987832;28;20027;-62
2022/11/25 11:05:23;;;;;;;10.80;2.45;;;;;;;12.61;100.00;101519.22;4987810;28;20050;-63
2022/11/25 11:08:07;;;;;;;11.70;2.80;;;;;;;12.60;100.00;101516.59;4994652;28;20053;-59
2022/11/25 11:10:32;;;;;;;16.35;3.10;;;;;;;12.62;100.00;101520.09;5007950;28;20380;-63
2022/11/25 11:13:17;;;;;;;10.10;2.25;;;;;;;12.55;100.00;101540.53;5007213;28;20037;-61
2022/11/25 11:15:42;;;;;;;11.75;2.50;;;;;;;12.62;100.00;101536.78;4990601;28;20073;-62
2022/11/25 11:18:13;;;;;;;11.68;2.47;;;;;;;12.79;100.00;101539.84;5007983;28;20053;-64
2022/11/25 11:20:45;;;;;;;14.77;2.42;;;;;;;12.86;100.00;101550.16;5027303;28;20045;-63
2022/11/25 11:23:12;;;;;;;12.57;2.63;;;;;;;12.81;100.00;101549.44;5030897;28;20032;-60
2022/11/25 11:25:40;;;;;;;12.70;2.88;;;;;;;12.78;100.00;101562.75;5031462;28;20083;-59
2022/11/25 11:28:24;;;;;;;14.75;2.60;;;;;;;12.56;100.00;101552.00;5031309;28;20064;-62
2022/11/25 11:30:57;;;;;;;16.98;3.22;;;;;;;12.41;100.00;101559.50;5012718;28;20036;-62
2022/11/25 11:33:47;;;;;;;14.13;2.47;;;;;;;12.48;100.00;101573.38;4997266;28;20053;-56
2022/11/25 11:36:34;;;;;;;13.15;2.20;;;;;;;12.72;100.00;101574.41;5031633;28;20025;-64
2022/11/25 11:39:23;;;;;;;22.90;2.75;;;;;;;12.80;100.00;101574.16;4991926;28;20038;-61
2022/11/25 11:41:56;;;;;;;22.20;2.95;;;;;;;12.84;100.00;101572.28;4991064;28;20030;-64